createdAt,value
2019-06-20T00:08:06.112Z,20.50
2019-06-20T00:18:13.108Z,20.40
2019-06-20T00:23:16.743Z,20.40
2019-06-20T00:28:20.972Z,20.40
2019-06-20T00:33:24.652Z,20.40
2019-06-20T00:38:28.263Z,20.40
2019-06-20T00:43:31.601Z,20.40
2019-06-20T00:53:38.746Z,20.40
2019-06-20T00:58:43.318Z,20.40
2019-06-20T01:03:46.673Z,20.40
2019-06-20T01:08:50.840Z,20.30
2019-06-20T01:13:55.020Z,20.30
2019-06-20T01:18:58.433Z,20.30
2019-06-20T01:24:02.581Z,20.20
2019-06-20T01:39:14.243Z,20.20
2019-06-20T01:44:18.057Z,20.10
2019-06-20T01:49:21.593Z,20.10
2019-06-20T01:54:24.950Z,20.10
2019-06-20T01:59:29.066Z,20.00
2019-06-20T02:09:36.002Z,20.00
2019-06-20T02:14:39.349Z,19.90
2019-06-20T02:29:50.052Z,19.90
2019-06-20T02:39:58.421Z,19.90
2019-06-20T02:55:10.530Z,19.90
2019-06-20T03:00:14.505Z,20.00
2019-06-20T03:05:17.994Z,20.10
2019-06-20T03:10:21.579Z,20.20
2019-06-20T03:15:24.885Z,20.30
2019-06-20T03:25:32.605Z,20.50
2019-06-20T03:30:35.915Z,20.70
2019-06-20T03:35:39.281Z,20.80
2019-06-20T03:40:42.605Z,20.90
2019-06-20T03:45:45.995Z,21.20
2019-06-20T03:50:50.282Z,21.40
2019-06-20T03:55:54.374Z,21.50
2019-06-20T04:00:58.229Z,21.60
2019-06-20T04:11:06.729Z,21.60
2019-06-20T04:16:10.053Z,21.90
2019-06-20T04:21:13.458Z,22.00
2019-06-20T04:31:21.112Z,22.40
2019-06-20T04:41:28.840Z,22.90
2019-06-20T04:46:44.344Z,23.10
2019-06-20T04:51:47.868Z,23.30
2019-06-20T04:56:51.204Z,23.50
2019-06-20T05:01:55.129Z,23.60
2019-06-20T05:07:10.441Z,23.70
2019-06-20T05:12:14.657Z,23.70
2019-06-20T05:17:18.742Z,23.80
2019-06-20T05:22:22.417Z,24.10
2019-06-20T05:27:25.704Z,24.30
2019-06-20T05:32:29.957Z,24.70
2019-06-20T05:47:41.185Z,25.60
2019-06-20T05:52:44.495Z,25.70
2019-06-20T05:57:47.817Z,25.60
2019-06-20T06:02:51.509Z,25.60
2019-06-20T06:07:55.810Z,25.60
2019-06-20T06:12:59.753Z,25.50
2019-06-20T06:18:03.297Z,25.40
2019-06-20T06:28:12.550Z,25.40
2019-06-20T06:33:16.085Z,25.10
2019-06-20T06:38:21.971Z,25.30
2019-06-20T06:43:25.577Z,25.30
2019-06-20T06:48:29.085Z,25.30
2019-06-20T06:53:34.532Z,25.30
2019-06-20T06:58:37.912Z,25.30
2019-06-20T07:03:41.206Z,25.40
2019-06-20T07:08:44.892Z,25.60
2019-06-20T07:13:48.606Z,25.80
2019-06-20T07:18:52.849Z,26.00
2019-06-20T07:23:57.152Z,26.20
2019-06-20T07:29:01.781Z,26.60
2019-06-20T07:34:05.071Z,26.80
2019-06-20T07:39:09.844Z,27.20
2019-06-20T07:44:13.845Z,27.80
2019-06-20T07:49:17.151Z,28.50
2019-06-20T07:54:20.920Z,28.80
2019-06-20T07:59:24.646Z,28.80
2019-06-20T08:04:28.095Z,28.70
2019-06-20T08:14:37.071Z,28.70
2019-06-20T08:19:41.065Z,28.80
2019-06-20T08:24:44.375Z,29.10
2019-06-20T08:29:47.924Z,29.10
2019-06-20T08:34:51.582Z,29.30
2019-06-20T08:39:56.799Z,29.30
2019-06-20T08:45:01.656Z,29.30
2019-06-20T08:50:06.388Z,29.20
2019-06-20T08:55:09.926Z,29.20
2019-06-20T09:00:17.662Z,29.30
2019-06-20T09:05:21.676Z,29.20
2019-06-20T09:10:38.034Z,29.20
2019-06-20T09:15:42.458Z,29.30
2019-06-20T09:20:45.833Z,29.30
2019-06-20T09:25:49.419Z,29.20
2019-06-20T09:30:53.918Z,29.30
2019-06-20T09:35:59.490Z,29.30
2019-06-20T09:41:03.470Z,29.80
2019-06-20T09:51:11.419Z,29.90
2019-06-20T09:56:15.025Z,30.20
2019-06-20T10:01:18.697Z,30.50
2019-06-20T10:06:23.452Z,30.60
2019-06-20T10:11:28.443Z,30.60
2019-06-20T10:21:36.953Z,31.30
2019-06-20T10:26:40.336Z,31.50
2019-06-20T10:31:45.756Z,31.50
2019-06-20T10:36:50.114Z,31.50
2019-06-20T10:41:53.184Z,31.50
2019-06-20T10:46:56.768Z,31.70
2019-06-20T10:52:00.274Z,31.80
2019-06-20T10:57:20.730Z,32.10
2019-06-20T11:02:27.661Z,32.40
2019-06-20T11:07:31.365Z,32.50
2019-06-20T11:12:45.590Z,32.30
2019-06-20T11:17:40.417Z,32.80
2019-06-20T11:27:51.704Z,32.90
2019-06-20T11:32:55.493Z,32.90
2019-06-20T11:38:00.464Z,33.10
2019-06-20T11:43:05.502Z,33.00
2019-06-20T11:48:08.966Z,33.00
2019-06-20T11:53:12.353Z,33.40
2019-06-20T11:58:16.061Z,33.30
2019-06-20T12:03:19.456Z,33.40
2019-06-20T12:08:22.936Z,33.10
2019-06-20T12:13:27.435Z,33.40
2019-06-20T12:18:30.797Z,33.10
2019-06-20T12:23:34.777Z,32.80
2019-06-20T12:28:40.728Z,32.80
2019-06-20T12:33:45.104Z,32.90
2019-06-20T12:38:50.772Z,33.40
2019-06-20T12:43:54.726Z,33.40
2019-06-20T12:48:58.497Z,33.50
2019-06-20T12:54:02.070Z,33.00
2019-06-20T12:59:05.759Z,32.90
2019-06-20T13:04:09.080Z,32.80
2019-06-20T13:09:12.489Z,33.50
2019-06-20T13:14:16.863Z,33.60
2019-06-20T13:19:20.212Z,32.90
2019-06-20T13:29:30.567Z,31.20
2019-06-20T13:34:38.029Z,30.80
2019-06-20T13:49:50.285Z,29.30
2019-06-20T13:54:53.637Z,28.80
2019-06-20T13:59:57.538Z,28.50
2019-06-20T14:05:01.758Z,28.30
2019-06-20T14:10:06.735Z,28.20
2019-06-20T14:15:10.597Z,28.20
2019-06-20T14:25:18.943Z,28.10
2019-06-20T14:30:23.260Z,28.00
2019-06-20T14:35:26.864Z,28.00
2019-06-20T14:45:37.788Z,27.90
2019-06-20T14:55:45.996Z,28.20
2019-06-20T15:00:51.851Z,28.30
2019-06-20T15:05:55.446Z,28.40
2019-06-20T15:10:59.103Z,28.40
2019-06-20T15:16:02.572Z,27.60
2019-06-20T15:26:10.402Z,27.50
2019-06-20T15:36:18.676Z,27.80
2019-06-20T15:51:30.392Z,28.70
2019-06-20T16:06:42.558Z,30.90
2019-06-20T16:11:48.849Z,31.00
2019-06-20T16:16:52.550Z,36.80
2019-06-20T16:21:58.038Z,43.80
2019-06-20T16:27:04.107Z,50.50
2019-06-20T16:32:08.215Z,54.40
2019-06-20T16:37:11.715Z,56.40
2019-06-20T16:42:15.099Z,57.00
2019-06-20T16:47:19.146Z,56.20
2019-06-20T16:52:23.690Z,53.40
2019-06-20T16:57:29.245Z,54.10
2019-06-20T17:02:33.232Z,53.90
2019-06-20T17:07:38.237Z,51.30
2019-06-20T17:38:10.428Z,31.20
2019-06-20T17:53:23.041Z,29.10
2019-06-20T17:58:26.372Z,28.80
2019-06-20T18:23:54.081Z,27.20
2019-06-20T18:34:06.784Z,26.30
2019-06-20T18:39:10.650Z,25.90
2019-06-20T18:44:14.859Z,25.50
2019-06-20T18:49:19.873Z,25.00
2019-06-20T19:04:45.384Z,24.30
2019-06-20T19:19:47.178Z,24.00
2019-06-20T19:24:53.153Z,23.70
2019-06-20T19:35:02.959Z,23.20
2019-06-20T19:40:09.146Z,23.00
2019-06-20T19:45:13.110Z,22.80
2019-06-20T20:00:36.048Z,22.00
2019-06-20T20:05:40.063Z,21.80
2019-06-20T20:10:45.671Z,21.80
2019-06-20T20:15:50.193Z,21.70
2019-06-20T20:26:01.029Z,21.60
2019-06-20T20:36:23.956Z,21.60
2019-06-20T20:46:21.575Z,21.60
2019-06-20T21:01:35.652Z,21.60
2019-06-20T21:06:42.991Z,21.70
2019-06-20T21:11:46.814Z,21.70
2019-06-20T21:22:02.946Z,21.70
2019-06-20T21:27:06.539Z,21.70
2019-06-20T21:32:09.924Z,21.70
2019-06-20T21:37:13.883Z,21.60
2019-06-20T21:42:39.186Z,21.50
2019-06-20T21:47:45.640Z,21.50
2019-06-20T21:57:55.066Z,21.30
2019-06-20T22:13:15.752Z,21.40
2019-06-20T22:18:37.205Z,21.30
2019-06-20T22:49:03.084Z,20.10
2019-06-20T22:54:06.984Z,20.00
2019-06-20T23:04:14.713Z,20.00
2019-06-20T23:09:18.144Z,20.00
2019-06-20T23:14:23.583Z,20.00
2019-06-20T23:24:30.767Z,19.80
2019-06-20T23:34:38.336Z,19.60
2019-06-20T23:44:46.676Z,19.30
2019-06-20T23:49:50.314Z,19.20
2019-06-20T23:54:53.754Z,19.10
2019-06-20T23:59:59.151Z,19.00
